createdAt,value
2018-12-19T00:01:26.149Z,23.13
2018-12-19T00:03:54.920Z,24.73
2018-12-19T00:06:23.823Z,24.43
2018-12-19T00:08:52.299Z,24.60
2018-12-19T00:11:20.725Z,24.70
2018-12-19T00:13:49.139Z,24.27
2018-12-19T00:16:17.464Z,24.43
2018-12-19T00:18:45.771Z,24.43
2018-12-19T00:21:14.149Z,23.10
2018-12-19T00:23:43.071Z,23.80
2018-12-19T00:26:12.172Z,22.93
2018-12-19T00:28:40.452Z,22.90
2018-12-19T00:31:08.901Z,23.27
2018-12-19T00:33:37.587Z,23.33
2018-12-19T00:36:05.923Z,23.30
2018-12-19T00:38:34.984Z,24.10
2018-12-19T00:41:03.461Z,22.97
2018-12-19T00:43:31.798Z,21.80
2018-12-19T00:46:00.213Z,23.70
2018-12-19T00:48:28.682Z,24.13
2018-12-19T00:50:57.179Z,22.03
2018-12-19T00:53:25.471Z,23.03
2018-12-19T00:55:53.925Z,20.90
2018-12-19T00:58:22.278Z,22.60
2018-12-19T01:00:51.100Z,21.93
2018-12-19T01:03:19.460Z,23.07
2018-12-19T01:05:47.785Z,22.33
2018-12-19T01:08:16.172Z,22.13
2018-12-19T01:10:45.074Z,23.03
2018-12-19T01:13:15.470Z,23.27
2018-12-19T01:15:43.929Z,23.27
2018-12-19T01:18:12.238Z,22.37
2018-12-19T01:20:40.786Z,22.90
2018-12-19T01:23:09.165Z,22.67
2018-12-19T01:25:37.508Z,22.47
2018-12-19T01:28:06.212Z,22.77
2018-12-19T01:30:34.560Z,22.67
2018-12-19T01:33:03.107Z,23.40
2018-12-19T01:35:31.429Z,23.37
2018-12-19T01:37:59.850Z,22.27
2018-12-19T01:40:28.252Z,23.03
2018-12-19T01:42:57.192Z,22.53
2018-12-19T01:45:25.526Z,24.27
2018-12-19T01:47:54.208Z,23.30
2018-12-19T01:50:22.552Z,24.40
2018-12-19T01:52:50.931Z,23.03
2018-12-19T01:55:19.320Z,23.17
2018-12-19T01:57:47.608Z,23.27
2018-12-19T02:00:16.035Z,22.73
2018-12-19T02:02:44.729Z,22.50
2018-12-19T02:05:13.113Z,24.13
2018-12-19T02:07:41.900Z,22.83
2018-12-19T02:10:10.352Z,23.77
2018-12-19T02:12:38.712Z,23.80
2018-12-19T02:15:07.901Z,23.03
2018-12-19T02:17:36.875Z,22.63
2018-12-19T02:20:05.555Z,24.27
2018-12-19T02:22:33.889Z,22.87
2018-12-19T02:25:02.212Z,23.80
2018-12-19T02:27:30.529Z,24.80
2018-12-19T02:29:59.050Z,23.77
2018-12-19T02:32:27.418Z,24.77
2018-12-19T02:34:56.585Z,24.07
2018-12-19T02:37:25.047Z,23.43
2018-12-19T02:39:53.385Z,24.30
2018-12-19T02:42:21.721Z,23.63
2018-12-19T02:44:50.070Z,23.70
2018-12-19T02:47:18.811Z,23.23
2018-12-19T02:49:47.783Z,23.00
2018-12-19T02:52:16.093Z,24.50
2018-12-19T02:54:44.468Z,23.77
2018-12-19T02:57:12.814Z,22.77
2018-12-19T02:59:41.836Z,23.87
2018-12-19T03:02:10.181Z,23.77
2018-12-19T03:04:39.311Z,23.03
2018-12-19T03:07:07.670Z,23.83
2018-12-19T03:09:42.801Z,22.33
2018-12-19T03:12:06.525Z,23.30
2018-12-19T03:14:34.836Z,22.83
2018-12-19T03:17:03.266Z,22.67
2018-12-19T03:19:31.643Z,22.97
2018-12-19T03:21:59.999Z,22.37
2018-12-19T03:24:28.487Z,22.17
2018-12-19T03:26:56.862Z,21.63
2018-12-19T03:29:25.254Z,21.27
2018-12-19T03:31:53.534Z,22.43
2018-12-19T03:34:21.888Z,22.57
2018-12-19T03:36:51.049Z,22.17
2018-12-19T03:39:19.381Z,22.20
2018-12-19T03:41:48.213Z,21.77
2018-12-19T03:44:17.498Z,20.80
2018-12-19T03:46:45.840Z,22.40
2018-12-19T03:49:14.330Z,22.07
2018-12-19T03:51:42.921Z,21.83
2018-12-19T03:54:11.237Z,20.27
2018-12-19T03:56:39.648Z,20.70
2018-12-19T03:59:08.001Z,21.40
2018-12-19T04:01:36.270Z,21.13
2018-12-19T04:04:04.728Z,20.63
2018-12-19T04:06:33.061Z,19.60
2018-12-19T04:09:01.376Z,20.77
2018-12-19T04:11:29.708Z,19.30
2018-12-19T04:13:58.077Z,19.63
2018-12-19T04:16:26.661Z,19.73
2018-12-19T04:18:55.002Z,19.90
2018-12-19T04:21:23.332Z,19.77
2018-12-19T04:23:51.654Z,19.27
2018-12-19T04:26:19.984Z,21.03
2018-12-19T04:28:48.320Z,20.50
2018-12-19T04:31:16.669Z,19.53
2018-12-19T04:33:44.999Z,20.47
2018-12-19T04:36:13.417Z,21.17
2018-12-19T04:38:41.957Z,19.87
2018-12-19T04:41:10.553Z,20.70
2018-12-19T04:43:38.888Z,20.73
2018-12-19T04:46:07.169Z,20.20
2018-12-19T04:48:35.542Z,20.20
2018-12-19T04:51:03.932Z,19.93
2018-12-19T04:53:32.248Z,19.97
2018-12-19T04:56:00.607Z,20.00
2018-12-19T04:58:28.920Z,20.43
2018-12-19T05:00:57.230Z,19.83
2018-12-19T05:03:26.153Z,19.60
2018-12-19T05:05:54.474Z,20.00
2018-12-19T05:08:22.828Z,19.50
2018-12-19T05:10:51.136Z,20.57
2018-12-19T05:13:19.428Z,18.80
2018-12-19T05:15:47.746Z,19.60
2018-12-19T05:18:16.154Z,19.90
2018-12-19T05:20:44.502Z,19.73
2018-12-19T05:23:12.891Z,19.50
2018-12-19T05:25:41.613Z,19.20
2018-12-19T05:28:09.957Z,20.57
2018-12-19T05:30:38.314Z,19.17
2018-12-19T05:33:06.642Z,18.93
2018-12-19T05:35:34.951Z,19.03
2018-12-19T05:38:03.352Z,19.53
2018-12-19T05:40:31.702Z,18.83
2018-12-19T05:43:00.041Z,19.17
2018-12-19T05:45:28.393Z,18.60
2018-12-19T05:47:57.061Z,18.03
2018-12-19T05:50:28.376Z,18.03
2018-12-19T05:52:57.708Z,19.33
2018-12-19T05:55:26.820Z,18.47
2018-12-19T05:57:55.645Z,17.30
2018-12-19T06:00:24.080Z,18.10
2018-12-19T06:02:52.448Z,19.13
2018-12-19T06:05:20.785Z,18.83
2018-12-19T06:07:49.078Z,17.97
2018-12-19T06:10:17.475Z,17.73
2018-12-19T06:12:45.871Z,18.23
2018-12-19T06:15:14.956Z,17.20
2018-12-19T06:17:43.330Z,17.60
2018-12-19T06:20:11.675Z,17.47
2018-12-19T06:22:40.090Z,17.67
2018-12-19T06:25:08.466Z,17.30
2018-12-19T06:27:36.799Z,17.20
2018-12-19T06:30:05.650Z,17.00
2018-12-19T06:32:33.986Z,17.33
2018-12-19T06:35:02.562Z,16.83
2018-12-19T06:37:31.794Z,17.53
2018-12-19T06:40:00.191Z,17.20
2018-12-19T06:42:28.703Z,18.17
2018-12-19T06:44:57.203Z,17.30
2018-12-19T06:47:25.709Z,17.80
2018-12-19T06:49:54.699Z,17.30
2018-12-19T06:52:23.392Z,19.33
2018-12-19T06:54:51.742Z,17.23
2018-12-19T06:57:20.334Z,17.57
2018-12-19T06:59:48.667Z,17.37
2018-12-19T07:02:16.994Z,18.10
2018-12-19T07:04:45.409Z,17.97
2018-12-19T07:07:13.786Z,17.63
2018-12-19T07:09:42.165Z,18.07
2018-12-19T07:12:10.611Z,17.50
2018-12-19T07:14:41.319Z,17.93
2018-12-19T07:17:09.686Z,17.90
2018-12-19T07:19:38.881Z,17.80
2018-12-19T07:22:07.333Z,18.13
2018-12-19T07:24:36.258Z,18.07
2018-12-19T07:27:04.890Z,18.20
2018-12-19T07:29:33.216Z,19.03
2018-12-19T07:32:01.624Z,18.23
2018-12-19T07:34:30.001Z,18.47
2018-12-19T07:36:58.850Z,18.10
2018-12-19T07:39:27.192Z,17.23
2018-12-19T07:41:55.524Z,18.13
2018-12-19T07:44:23.807Z,17.77
2018-12-19T07:46:53.017Z,17.20
2018-12-19T07:49:21.402Z,17.90
2018-12-19T07:51:49.724Z,17.40
2018-12-19T07:54:18.259Z,17.97
2018-12-19T07:56:46.834Z,17.90
2018-12-19T07:59:15.256Z,17.37
2018-12-19T08:01:43.617Z,17.47
2018-12-19T08:04:12.383Z,17.20
2018-12-19T08:06:40.840Z,16.67
2018-12-19T08:09:09.264Z,16.33
2018-12-19T08:11:38.659Z,17.03
2018-12-19T08:14:06.968Z,16.63
2018-12-19T08:16:35.418Z,17.80
2018-12-19T08:19:03.820Z,16.87
2018-12-19T08:21:32.318Z,17.20
2018-12-19T08:24:00.757Z,16.93
2018-12-19T08:26:30.004Z,16.73
2018-12-19T08:28:58.411Z,17.20
2018-12-19T08:31:27.129Z,16.87
2018-12-19T08:33:55.840Z,16.80
2018-12-19T08:36:24.266Z,17.33
2018-12-19T08:38:52.994Z,16.70
2018-12-19T08:41:21.925Z,17.80
2018-12-19T08:43:50.421Z,17.27
2018-12-19T08:46:19.587Z,16.53
2018-12-19T08:48:48.645Z,16.60
2018-12-19T08:51:16.956Z,18.27
2018-12-19T08:53:45.371Z,18.93
2018-12-19T08:56:15.055Z,17.40
2018-12-19T08:58:43.639Z,17.00
2018-12-19T09:01:12.381Z,16.60
2018-12-19T09:03:40.828Z,17.63
2018-12-19T09:06:09.209Z,16.17
2018-12-19T09:08:37.521Z,16.13
2018-12-19T09:11:06.162Z,16.60
2018-12-19T09:13:34.694Z,16.03
2018-12-19T09:16:03.109Z,16.50
2018-12-19T09:18:31.513Z,19.03
2018-12-19T09:21:00.082Z,17.10
2018-12-19T09:23:28.434Z,17.07
2018-12-19T09:25:56.863Z,16.80
2018-12-19T09:28:25.271Z,17.20
2018-12-19T09:30:53.648Z,16.83
2018-12-19T09:33:27.398Z,17.10
2018-12-19T09:35:52.530Z,16.07
2018-12-19T09:38:20.881Z,15.83
2018-12-19T09:40:49.364Z,16.10
2018-12-19T09:43:17.811Z,18.30
2018-12-19T09:45:46.246Z,15.73
2018-12-19T09:48:15.630Z,15.77
2018-12-19T09:50:44.394Z,15.87
2018-12-19T09:53:13.016Z,15.57
2018-12-19T09:55:41.314Z,15.50
2018-12-19T09:58:09.758Z,15.47
2018-12-19T10:00:38.130Z,15.40
2018-12-19T10:03:06.555Z,15.60
2018-12-19T10:05:35.092Z,16.03
2018-12-19T10:08:03.637Z,15.50
2018-12-19T10:10:32.618Z,15.40
2018-12-19T10:13:01.137Z,15.30
2018-12-19T10:15:29.587Z,16.00
2018-12-19T10:17:58.198Z,16.47
2018-12-19T10:20:26.566Z,15.83
2018-12-19T10:22:55.717Z,14.67
2018-12-19T10:25:26.268Z,15.43
2018-12-19T10:27:54.597Z,14.67
2018-12-19T10:30:23.878Z,15.10
2018-12-19T10:32:56.347Z,14.77
2018-12-19T10:35:26.116Z,13.63
2018-12-19T10:37:54.863Z,14.73
2018-12-19T10:40:23.966Z,14.10
2018-12-19T10:42:52.561Z,14.63
2018-12-19T10:45:21.218Z,14.83
2018-12-19T10:47:49.618Z,14.47
2018-12-19T10:50:18.268Z,14.30
2018-12-19T10:52:47.128Z,14.23
2018-12-19T10:55:15.519Z,14.17
2018-12-19T10:57:44.533Z,13.83
2018-12-19T11:00:18.756Z,14.30
2018-12-19T11:02:47.565Z,14.17
2018-12-19T11:05:16.227Z,14.57
2018-12-19T11:07:46.134Z,15.73
2018-12-19T11:10:14.720Z,14.70
2018-12-19T11:12:43.472Z,14.97
2018-12-19T11:15:12.237Z,14.93
2018-12-19T11:17:41.010Z,14.13
2018-12-19T11:20:10.696Z,15.00
2018-12-19T11:22:39.076Z,15.60
2018-12-19T11:25:07.743Z,14.33
2018-12-19T11:27:36.167Z,15.00
2018-12-19T11:30:06.219Z,15.37
2018-12-19T11:32:34.645Z,14.73
2018-12-19T11:35:03.561Z,14.50
2018-12-19T11:37:32.975Z,13.60
2018-12-19T11:40:01.385Z,14.13
2018-12-19T11:42:30.394Z,14.27
2018-12-19T11:44:58.725Z,14.50
2018-12-19T11:47:27.660Z,15.67
2018-12-19T11:49:56.093Z,14.67
2018-12-19T11:52:25.090Z,15.00
2018-12-19T11:54:53.690Z,13.77
2018-12-19T11:57:22.197Z,14.37
2018-12-19T11:59:50.644Z,14.60
2018-12-19T12:02:19.467Z,15.13
2018-12-19T12:04:47.832Z,16.33
2018-12-19T12:07:16.351Z,16.93
2018-12-19T12:09:44.843Z,15.93
2018-12-19T12:12:13.258Z,14.53
2018-12-19T12:14:42.431Z,16.77
2018-12-19T12:17:11.154Z,15.23
2018-12-19T12:19:39.509Z,14.10
2018-12-19T12:22:07.863Z,13.80
2018-12-19T12:24:36.226Z,13.27
2018-12-19T12:27:05.194Z,14.80
2018-12-19T12:29:34.387Z,14.87
2018-12-19T12:32:03.306Z,14.10
2018-12-19T12:34:31.750Z,14.10
2018-12-19T12:37:01.365Z,14.37
2018-12-19T12:39:30.296Z,14.27
2018-12-19T12:41:59.487Z,15.13
2018-12-19T12:44:27.910Z,19.00
2018-12-19T12:46:58.313Z,14.73
2018-12-19T12:49:26.787Z,14.10
2018-12-19T12:51:56.177Z,14.47
2018-12-19T12:54:25.169Z,14.57
2018-12-19T12:56:54.415Z,13.87
2018-12-19T12:59:22.818Z,14.40
2018-12-19T13:01:51.160Z,15.10
2018-12-19T13:04:21.855Z,13.50
2018-12-19T13:06:51.519Z,14.30
2018-12-19T13:09:20.961Z,14.27
2018-12-19T13:11:49.280Z,14.20
2018-12-19T13:14:17.830Z,13.53
2018-12-19T13:16:46.191Z,14.93
2018-12-19T13:19:14.730Z,14.20
2018-12-19T13:21:43.040Z,14.20
2018-12-19T13:24:11.365Z,14.00
2018-12-19T13:26:39.825Z,14.67
2018-12-19T13:29:08.787Z,14.30
2018-12-19T13:31:37.686Z,14.57
2018-12-19T13:34:06.338Z,13.90
2018-12-19T13:36:35.599Z,14.33
2018-12-19T13:39:07.854Z,15.43
2018-12-19T13:41:36.189Z,15.10
2018-12-19T13:44:05.206Z,15.23
2018-12-19T13:46:33.566Z,14.10
2018-12-19T13:49:01.907Z,14.20
2018-12-19T13:51:31.194Z,14.50
2018-12-19T13:53:59.577Z,15.67
2018-12-19T13:56:28.004Z,15.13
2018-12-19T13:58:56.867Z,14.60
2018-12-19T14:01:25.300Z,14.67
2018-12-19T14:03:53.719Z,14.23
2018-12-19T14:06:22.051Z,13.20
2018-12-19T14:08:50.409Z,13.83
2018-12-19T14:11:18.746Z,13.90
2018-12-19T14:13:47.087Z,13.93
2018-12-19T14:16:15.470Z,14.20
2018-12-19T14:18:43.820Z,14.53
2018-12-19T14:21:12.306Z,14.33
2018-12-19T14:23:40.787Z,13.93
2018-12-19T14:26:09.399Z,13.60
2018-12-19T14:28:37.746Z,14.27
2018-12-19T14:31:06.277Z,13.93
2018-12-19T14:33:34.804Z,16.10
2018-12-19T14:36:03.117Z,14.57
2018-12-19T14:38:31.428Z,15.53
2018-12-19T14:40:59.840Z,14.63
2018-12-19T14:43:28.501Z,14.10
2018-12-19T14:45:59.575Z,14.67
2018-12-19T14:48:30.752Z,14.30
2018-12-19T14:51:02.424Z,14.77
2018-12-19T14:53:34.773Z,15.13
2018-12-19T14:56:07.515Z,14.37
2018-12-19T15:01:17.063Z,14.53
2018-12-19T15:03:46.518Z,15.43
2018-12-19T15:06:15.529Z,15.13
2018-12-19T15:08:46.002Z,13.77
2018-12-19T15:11:14.474Z,14.63
2018-12-19T15:13:42.793Z,13.77
2018-12-19T15:16:11.103Z,15.47
2018-12-19T15:18:39.419Z,14.80
2018-12-19T15:21:07.802Z,13.67
2018-12-19T15:23:36.322Z,13.57
2018-12-19T15:26:05.005Z,14.30
2018-12-19T15:28:33.382Z,14.80
2018-12-19T15:31:03.734Z,14.50
2018-12-19T15:33:37.278Z,14.47
2018-12-19T15:36:05.724Z,14.50
2018-12-19T15:38:34.027Z,15.13
2018-12-19T15:41:02.394Z,17.30
2018-12-19T15:43:30.686Z,15.27
2018-12-19T15:45:59.015Z,13.83
2018-12-19T15:48:27.330Z,14.60
2018-12-19T15:50:55.656Z,18.53
2018-12-19T15:53:24.009Z,20.63
2018-12-19T15:55:52.772Z,21.83
2018-12-19T15:58:21.160Z,20.90
2018-12-19T16:00:49.505Z,15.77
2018-12-19T16:03:17.852Z,14.70
2018-12-19T16:05:46.323Z,14.43
2018-12-19T16:08:14.975Z,14.47
2018-12-19T16:10:43.405Z,15.03
2018-12-19T16:13:12.318Z,15.27
2018-12-19T16:15:41.258Z,15.73
2018-12-19T16:18:09.693Z,16.90
2018-12-19T16:20:38.818Z,15.20
2018-12-19T16:23:09.062Z,15.73
2018-12-19T16:25:37.542Z,17.23
2018-12-19T16:28:06.152Z,16.40
2018-12-19T16:30:34.634Z,15.30
2018-12-19T16:33:03.030Z,15.60
2018-12-19T16:35:32.180Z,15.73
2018-12-19T16:38:00.762Z,16.13
2018-12-19T16:40:29.236Z,16.57
2018-12-19T16:42:57.573Z,16.23
2018-12-19T16:45:26.541Z,15.87
2018-12-19T16:47:55.926Z,17.20
2018-12-19T16:50:24.270Z,16.90
2018-12-19T16:52:52.564Z,17.07
2018-12-19T16:55:20.903Z,16.97
2018-12-19T16:57:49.290Z,15.93
2018-12-19T17:00:17.804Z,16.93
2018-12-19T17:02:46.172Z,16.57
2018-12-19T17:05:14.483Z,16.70
2018-12-19T17:07:42.773Z,17.50
2018-12-19T17:10:11.129Z,17.23
2018-12-19T17:12:39.460Z,16.53
2018-12-19T17:15:08.067Z,16.07
2018-12-19T17:17:36.548Z,16.77
2018-12-19T17:20:06.335Z,16.73
2018-12-19T17:22:34.784Z,16.20
2018-12-19T17:25:03.516Z,15.60
2018-12-19T17:27:31.805Z,15.13
2018-12-19T17:30:00.926Z,15.13
2018-12-19T17:32:30.394Z,16.53
2018-12-19T17:34:58.697Z,16.53
2018-12-19T17:37:27.001Z,15.23
2018-12-19T17:39:55.367Z,15.53
2018-12-19T17:42:23.679Z,14.57
2018-12-19T17:44:51.995Z,14.87
2018-12-19T17:47:20.309Z,16.07
2018-12-19T17:49:48.717Z,16.23
2018-12-19T17:52:17.289Z,16.10
2018-12-19T17:54:45.905Z,17.73
2018-12-19T17:57:14.274Z,16.50
2018-12-19T17:59:42.633Z,16.60
2018-12-19T18:02:11.105Z,16.33
2018-12-19T18:04:39.410Z,18.30
2018-12-19T18:07:07.715Z,18.67
2018-12-19T18:09:36.077Z,18.70
2018-12-19T18:12:04.578Z,17.43
2018-12-19T18:14:32.949Z,17.27
2018-12-19T18:17:01.349Z,19.80
2018-12-19T18:19:29.848Z,17.23
2018-12-19T18:21:58.898Z,17.60
2018-12-19T18:24:27.257Z,17.07
2018-12-19T18:26:55.578Z,18.13
2018-12-19T18:29:24.113Z,17.97
2018-12-19T18:31:53.118Z,17.87
2018-12-19T18:34:21.507Z,17.73
2018-12-19T18:36:49.872Z,18.47
2018-12-19T18:39:18.330Z,17.93
2018-12-19T18:41:46.606Z,17.97
2018-12-19T18:44:14.972Z,16.57
2018-12-19T18:46:43.334Z,17.03
2018-12-19T18:49:11.779Z,18.03
2018-12-19T18:51:40.132Z,18.77
2018-12-19T18:54:08.500Z,21.87
2018-12-19T18:56:36.867Z,21.47
2018-12-19T18:59:05.363Z,19.93
2018-12-19T19:01:33.823Z,20.50
2018-12-19T19:04:02.156Z,19.20
2018-12-19T19:06:30.577Z,18.83
2018-12-19T19:08:59.132Z,22.97
2018-12-19T19:11:27.562Z,23.23
2018-12-19T19:13:55.865Z,22.07
2018-12-19T19:16:24.248Z,23.90
2018-12-19T19:18:53.416Z,21.60
2018-12-19T19:21:21.740Z,21.17
2018-12-19T19:23:50.040Z,21.07
2018-12-19T19:26:19.343Z,21.47
2018-12-19T19:28:47.929Z,18.90
2018-12-19T19:31:16.341Z,19.30
2018-12-19T19:33:45.354Z,19.53
2018-12-19T19:36:13.738Z,19.97
2018-12-19T19:41:16.752Z,19.10
2018-12-19T19:43:45.196Z,21.20
2018-12-19T19:46:13.674Z,20.03
2018-12-19T19:48:42.067Z,18.57
2018-12-19T19:51:16.783Z,19.43
2018-12-19T19:53:40.860Z,20.47
2018-12-19T19:56:09.421Z,21.47
2018-12-19T19:58:37.797Z,20.30
2018-12-19T20:01:06.450Z,19.90
2018-12-19T20:03:34.858Z,24.30
2018-12-19T20:06:03.475Z,23.40
2018-12-19T20:08:31.896Z,21.27
2018-12-19T20:11:00.198Z,19.37
2018-12-19T20:13:33.283Z,20.00
2018-12-19T20:16:00.216Z,21.00
2018-12-19T20:18:28.712Z,19.20
2018-12-19T20:20:57.066Z,18.83
2018-12-19T20:23:25.449Z,18.40
2018-12-19T20:25:53.949Z,20.00
2018-12-19T20:28:22.336Z,19.10
2018-12-19T20:30:50.671Z,19.80
2018-12-19T20:33:19.290Z,19.20
2018-12-19T20:35:47.739Z,17.57
2018-12-19T20:38:16.288Z,19.63
2018-12-19T20:46:26.621Z,19.57
2018-12-19T20:48:54.967Z,18.37
2018-12-19T20:51:23.281Z,19.73
2018-12-19T20:53:51.649Z,19.73
2018-12-19T20:56:20.356Z,20.27
2018-12-19T20:58:48.695Z,19.90
2018-12-19T21:01:17.265Z,19.80
2018-12-19T21:03:45.620Z,19.27
2018-12-19T21:06:13.927Z,18.57
2018-12-19T21:08:42.246Z,19.50
2018-12-19T21:11:10.692Z,19.07
2018-12-19T21:13:39.028Z,19.47
2018-12-19T21:16:07.410Z,19.33
2018-12-19T21:18:41.415Z,18.90
2018-12-19T21:21:09.828Z,19.30
2018-12-19T21:23:38.345Z,19.27
2018-12-19T21:26:06.776Z,19.37
2018-12-19T21:28:35.178Z,18.93
2018-12-19T21:31:04.302Z,18.97
2018-12-19T21:33:32.904Z,19.03
2018-12-19T21:36:01.204Z,18.83
2018-12-19T21:38:29.628Z,19.03
2018-12-19T21:40:58.065Z,18.67
2018-12-19T21:43:26.524Z,20.03
2018-12-19T21:45:54.848Z,18.80
2018-12-19T21:48:23.157Z,18.43
2018-12-19T21:50:51.713Z,19.30
2018-12-19T21:53:20.540Z,19.43
2018-12-19T21:55:49.049Z,18.70
2018-12-19T21:58:17.433Z,20.73
2018-12-19T22:00:45.968Z,19.07
2018-12-19T22:03:14.884Z,19.33
2018-12-19T22:05:44.221Z,19.37
2018-12-19T22:08:13.513Z,19.87
2018-12-19T22:10:41.882Z,18.73
2018-12-19T22:13:10.187Z,19.03
2018-12-19T22:15:38.647Z,19.47
2018-12-19T22:18:12.650Z,20.20
2018-12-19T22:20:40.954Z,18.53
2018-12-19T22:23:09.397Z,20.13
2018-12-19T22:25:37.852Z,19.43
2018-12-19T22:28:06.266Z,20.50
2018-12-19T22:30:34.735Z,19.57
2018-12-19T22:33:03.200Z,19.50
2018-12-19T22:35:31.727Z,19.60
2018-12-19T22:38:00.153Z,19.50
2018-12-19T22:40:28.491Z,18.77
2018-12-19T22:42:56.889Z,20.10
2018-12-19T22:45:25.980Z,19.63
2018-12-19T22:47:54.356Z,18.83
2018-12-19T22:50:23.036Z,19.13
2018-12-19T22:52:51.522Z,19.33
2018-12-19T22:55:20.718Z,20.13
2018-12-19T22:57:49.745Z,20.87
2018-12-19T23:00:19.687Z,20.73
2018-12-19T23:02:54.707Z,21.27
2018-12-19T23:05:30.439Z,19.40
2018-12-19T23:07:59.668Z,21.30
2018-12-19T23:10:29.301Z,21.20
2018-12-19T23:12:57.651Z,20.90
2018-12-19T23:15:26.480Z,21.97
2018-12-19T23:17:59.063Z,20.40
2018-12-19T23:20:27.488Z,21.63
2018-12-19T23:22:56.074Z,21.50
2018-12-19T23:25:24.696Z,20.70
2018-12-19T23:28:02.263Z,20.93
2018-12-19T23:30:30.696Z,19.57
2018-12-19T23:32:59.451Z,21.07
2018-12-19T23:35:27.897Z,21.33
2018-12-19T23:37:56.401Z,22.50
2018-12-19T23:40:24.792Z,21.53
2018-12-19T23:42:53.125Z,22.43
2018-12-19T23:45:22.174Z,21.90
2018-12-19T23:47:50.526Z,22.10
2018-12-19T23:50:18.828Z,22.70
2018-12-19T23:52:47.921Z,23.40
2018-12-19T23:55:16.276Z,21.83
2018-12-19T23:57:44.652Z,23.30
